메인 페이지
METAR-TAF:

METAR-TAF

공항 :

두알라, 카메룬

위도: 04-00N, 경도: 009-44E, 고도: 10m

현재 날씨관측

예보는 40분 전, 01:00시(UTC)에 발표되었습니다.
동남동2kt
온도 24°C
습도 94%
기압 1012 hPa
시정: 7000m
고도 600ft 상공 구름 보통
고도 1300ft 상공 구름 많음
고도 1600ft 상공 구름 조금, 적란운.
약한비, 이슬비

METAR: FKKD 290100Z 12002KT 7000 -RADZ SCT006 BKN013 FEW016CB 24/23 Q1012 NOSIG

시각: 02:40 (01:40 UTC)

예보

예보는 2 시간 40분 전, 23:00시(UTC)에 발표되었습니다.
예보 대상 시간: 29일 00시부터 30일 06시까지 (UTC)
여러 방향의 바람 2kt
시정 10km 이상
고도 500ft 상공 구름 보통
고도 1300ft 상공 구름 많음
고도 1600ft 상공 구름 조금, 적란운.
일시적
29일 00시부터 29일 09시까지 (UTC)
시정: 3000m
비, 이슬비
확률 30%
29일 04시부터 29일 08시까지 (UTC)
뇌우
일시적
29일 12시부터 29일 18시까지 (UTC)
고도 1600ft 상공 구름 많음
고도 2000ft 상공 구름 조금, 적란운.

TAF: FKKD 282300Z 2900/3006 VRB02KT 9999 SCT005 BKN013 FEW016CB TEMPO 2900/2909 3000 RADZ PROB30 2904/2908 TS TEMPO 2912/2918 BKN016 FEW020CB

4,000개 이상의 공항 관측 자료 및 예보 (METAR 및 TAF 보고).

지도상에서 검색 가능한 기상관측소가 노란 점과 빨간 점으로 표시되어 있습니다.

기상관측소 명을 보려면 표시 위로 마우스를 이동하세요.

날씨 관측과 예보를 보려면 클릭하세요.

지도 변경 : 확대하려면 엑스 표시가 있는 녹색 버튼, 축소하려면 빼기 표시가 있는 녹색 버튼, 다음 페이지의 지도를 보려면 녹색 화살표를 클릭하세요.


METAR-TAF: